Terminal Aerodrome Forecast
Issued by NWS Buffalo, NY

Home | Current Version | Previous Version | Text Only | Print | Product List | Glossary On
Versions: 1 2 3 4 5 6 7 8 9 10 11 12 13 14 15 16 17 18 19 20 21 22 23 24 25 26 27
113
FTUS41 KBUF 220542
TAFBUF
TAF
KBUF 220542Z 2206/2306 20004KT 6SM BR OVC012
     FM221100 17004KT 6SM BR BKN025
     FM221400 20005KT P6SM BKN025
     FM221700 23010KT P6SM BKN015
     FM222000 23012KT 3SM BR BKN012=

USA.gov is the U.S. government's official web portal to all federal, state and local government web resources and services.